Clifton, Illinois
Current Conditions -  °F | °C
As of 4:15 AM on Friday 31 Oct 2014 (Local Time) from KIKK Reporting Station
Drizzle Drizzle  
Wind Chill: 41°   Ceiling: 3900
Heat Index: 45°   Visibility: 10mi
Dew Point: 40°   Wind: 7mph
Humidity: 84%   Direction: 310°NW
Pressure: 30.03"   Gusts: NA
Location:  40.94°N, 87.93°W
Report Text: KIKK 310915Z AUTO 31006KT 10SM -DZ OVC039 07/05 A3003 RMK AO2 T00710046
Loading
Personal Weather Stations






























Interactive Weather Map
Tropical Storm Tracking
New forecast layout! Learn more

10-Day Weather Forecast

Advertisements
Track Severe Weather on mobile